Time;durP1;ratioP1;P1;durP2;ratioP2;P2;SDS_P1;SDS_P2;PMS_P1;PMS_P2;Temp;Humidity;BMP_temperature;BMP_pressure;BME280_temperature;BME280_humidity;BME280_pressure;Samples;Min_cycle;Max_cycle;Signal;HPM_P1;HPM_P2
2023/07/31 00:02:11;;;;;;;4.07;3.03;;;17.40;99.90;;;;;;5186668;28;20092;-72
2023/07/31 00:04:42;;;;;;;3.92;2.83;;;17.40;99.90;;;;;;5186608;28;20029;-72
2023/07/31 00:07:13;;;;;;;3.40;3.17;;;17.40;99.90;;;;;;5186518;28;20034;-73
2023/07/31 00:09:44;;;;;;;3.55;3.35;;;17.60;99.90;;;;;;5190043;28;20030;-72
2023/07/31 00:12:15;;;;;;;3.80;3.50;;;17.70;99.90;;;;;;5197817;28;20030;-72
2023/07/31 00:14:46;;;;;;;3.63;3.40;;;17.50;99.90;;;;;;5180175;28;20074;-72
2023/07/31 00:17:17;;;;;;;4.18;3.78;;;17.30;99.90;;;;;;5181293;28;20477;-72
2023/07/31 00:19:50;;;;;;;3.78;3.40;;;17.40;99.90;;;;;;5166294;28;20026;-73
2023/07/31 00:22:21;;;;;;;3.67;3.47;;;17.50;99.90;;;;;;5166151;28;20138;-72
2023/07/31 00:24:52;;;;;;;4.22;3.92;;;17.50;99.90;;;;;;5166052;28;20113;-72
2023/07/31 00:27:23;;;;;;;3.65;3.38;;;17.40;99.90;;;;;;5205977;28;20057;-72
2023/07/31 00:29:54;;;;;;;5.40;3.47;;;17.40;99.90;;;;;;5206410;28;20037;-72
2023/07/31 00:32:24;;;;;;;4.35;3.97;;;17.40;99.90;;;;;;5205944;28;20064;-72
2023/07/31 00:34:55;;;;;;;4.50;4.13;;;17.40;99.90;;;;;;5190431;28;20034;-72
2023/07/31 00:37:26;;;;;;;3.42;3.13;;;17.40;99.90;;;;;;5184954;28;20022;-72
2023/07/31 00:39:57;;;;;;;3.78;3.53;;;17.20;99.90;;;;;;5170247;28;20050;-72
2023/07/31 00:42:28;;;;;;;3.97;3.67;;;17.20;99.90;;;;;;5183724;28;20486;-72
2023/07/31 00:44:59;;;;;;;4.25;3.95;;;17.20;99.90;;;;;;5184400;28;20026;-72
2023/07/31 00:47:30;;;;;;;4.28;3.97;;;17.30;99.90;;;;;;5184567;28;20155;-72
2023/07/31 00:50:01;;;;;;;3.90;3.60;;;17.30;99.90;;;;;;5185254;28;20105;-72
2023/07/31 00:52:31;;;;;;;3.90;3.50;;;17.20;99.90;;;;;;5185885;28;20091;-72
2023/07/31 00:55:03;;;;;;;4.75;3.40;;;17.00;99.90;;;;;;5185753;28;20045;-72
2023/07/31 00:57:36;;;;;;;3.58;3.28;;;17.00;99.90;;;;;;5185754;28;20051;-72
2023/07/31 01:00:08;;;;;;;3.95;3.75;;;17.10;99.90;;;;;;5185740;28;20466;-72
2023/07/31 01:02:39;;;;;;;4.05;3.75;;;17.10;99.90;;;;;;5185798;28;20029;-72
2023/07/31 01:05:09;;;;;;;4.22;3.92;;;17.00;99.90;;;;;;5184467;28;20034;-72
2023/07/31 01:08:04;;;;;;;4.85;4.30;;;17.00;99.90;;;;;;5182658;28;20418;-72
2023/07/31 01:10:46;;;;;;;4.65;3.90;;;17.00;99.90;;;;;;5176589;28;20030;-72
2023/07/31 01:13:17;;;;;;;4.55;4.18;;;17.00;99.90;;;;;;5165054;28;20030;-72
2023/07/31 01:15:48;;;;;;;4.07;3.78;;;17.10;99.90;;;;;;5165228;28;20022;-72
2023/07/31 01:18:19;;;;;;;3.92;3.63;;;17.20;99.90;;;;;;5165094;28;20493;-72
2023/07/31 01:21:14;;;;;;;3.17;2.97;;;16.90;99.90;;;;;;5180873;28;20038;-72
2023/07/31 01:24:07;;;;;;;4.43;3.67;;;17.00;99.90;;;;;;5185337;28;20100;-72
2023/07/31 01:26:40;;;;;;;5.65;4.30;;;16.90;99.90;;;;;;5184688;28;20084;-72
2023/07/31 01:29:23;;;;;;;3.75;3.45;;;17.00;99.90;;;;;;5185102;28;20030;-72
2023/07/31 01:31:56;;;;;;;4.20;3.90;;;16.60;99.90;;;;;;5184067;28;20022;-72
2023/07/31 01:34:29;;;;;;;4.03;3.72;;;16.80;99.90;;;;;;5184124;28;20461;-73
2023/07/31 01:37:00;;;;;;;4.22;3.92;;;16.70;99.90;;;;;;5178602;28;20069;-72
2023/07/31 01:39:31;;;;;;;4.05;3.75;;;16.60;99.90;;;;;;5167638;28;20461;-72
2023/07/31 01:42:02;;;;;;;3.67;3.40;;;16.80;99.90;;;;;;5198953;28;20218;-72
2023/07/31 01:44:33;;;;;;;3.75;3.40;;;16.90;99.90;;;;;;5184138;28;20034;-72
2023/07/31 01:47:04;;;;;;;3.75;3.47;;;17.00;99.90;;;;;;5183863;28;20434;-72
2023/07/31 01:49:35;;;;;;;3.63;3.42;;;16.80;99.90;;;;;;5185324;28;20022;-72
2023/07/31 01:52:06;;;;;;;3.40;3.20;;;17.00;99.90;;;;;;5184025;28;20156;-72
2023/07/31 01:54:37;;;;;;;3.45;3.20;;;16.70;99.90;;;;;;5185096;28;20033;-72
2023/07/31 01:57:08;;;;;;;4.00;3.72;;;16.70;99.90;;;;;;5183722;28;20109;-73
2023/07/31 01:59:39;;;;;;;4.28;3.97;;;16.90;99.90;;;;;;5185186;28;20437;-72
2023/07/31 02:02:09;;;;;;;3.85;3.55;;;16.80;99.90;;;;;;5184927;28;20034;-72
2023/07/31 02:04:40;;;;;;;4.35;4.05;;;16.80;99.90;;;;;;5185025;28;20084;-72
2023/07/31 02:07:11;;;;;;;3.97;3.60;;;16.80;99.90;;;;;;5183555;28;20026;-72
2023/07/31 02:09:42;;;;;;;4.20;3.80;;;16.70;99.90;;;;;;5168385;28;20029;-72
2023/07/31 02:12:14;;;;;;;4.00;3.70;;;16.70;99.90;;;;;;5201634;28;20022;-72
2023/07/31 02:14:45;;;;;;;3.80;3.60;;;16.60;99.90;;;;;;5185092;28;20041;-72
2023/07/31 02:17:15;;;;;;;4.18;3.83;;;16.70;99.90;;;;;;5186502;28;20010;-72
2023/07/31 02:19:46;;;;;;;4.03;3.80;;;16.70;99.90;;;;;;5207587;28;20462;-72
2023/07/31 02:22:18;;;;;;;3.20;3.00;;;16.80;99.90;;;;;;5208362;28;20030;-72
2023/07/31 02:24:48;;;;;;;4.30;3.90;;;16.70;99.90;;;;;;5207713;28;20428;-72
2023/07/31 02:27:20;;;;;;;4.03;3.72;;;16.70;99.90;;;;;;5207517;28;20064;-72
2023/07/31 02:29:51;;;;;;;3.95;3.65;;;16.80;99.90;;;;;;5207588;28;20025;-71
2023/07/31 02:32:22;;;;;;;3.67;3.38;;;16.70;99.90;;;;;;5207620;28;20477;-72
2023/07/31 02:34:53;;;;;;;4.35;4.00;;;16.70;99.90;;;;;;5198174;28;20560;-73
2023/07/31 02:37:24;;;;;;;4.72;4.43;;;16.60;99.90;;;;;;5195946;28;20030;-72
2023/07/31 02:39:56;;;;;;;4.75;4.35;;;16.30;99.90;;;;;;5187433;28;20026;-72
2023/07/31 02:42:26;;;;;;;4.28;3.97;;;16.30;99.90;;;;;;5186969;28;20481;-72
2023/07/31 02:44:57;;;;;;;4.68;4.28;;;16.40;99.90;;;;;;5187088;28;20026;-72
2023/07/31 02:47:28;;;;;;;4.22;3.83;;;16.40;99.90;;;;;;5188147;28;20493;-72
2023/07/31 02:49:59;;;;;;;5.10;3.83;;;16.30;99.90;;;;;;5188254;28;20021;-72
2023/07/31 02:52:30;;;;;;;6.15;4.10;;;16.30;99.90;;;;;;5728117;22;20019;-72
2023/07/31 02:55:01;;;;;;;4.78;3.88;;;16.30;99.90;;;;;;5208321;28;20040;-72
2023/07/31 02:57:32;;;;;;;3.95;3.63;;;16.30;99.90;;;;;;5208321;28;20416;-73
2023/07/31 03:00:06;;;;;;;4.00;3.72;;;16.30;99.90;;;;;;5208368;28;20032;-72
2023/07/31 03:02:37;;;;;;;4.30;4.03;;;16.30;99.90;;;;;;5208374;28;20449;-72
2023/07/31 03:05:08;;;;;;;3.97;3.67;;;16.50;99.90;;;;;;5208275;28;20100;-72
2023/07/31 03:07:39;;;;;;;3.53;3.22;;;16.40;99.90;;;;;;5208067;28;20032;-72
2023/07/31 03:10:09;;;;;;;3.50;3.20;;;16.30;99.90;;;;;;5208232;28;20025;-72
2023/07/31 03:12:41;;;;;;;4.55;3.40;;;16.30;99.90;;;;;;5208107;28;20029;-72
2023/07/31 03:15:12;;;;;;;3.80;3.00;;;16.30;99.90;;;;;;5208214;28;20033;-72
2023/07/31 03:17:42;;;;;;;3.88;2.88;;;16.10;99.90;;;;;;5208105;28;20110;-72
2023/07/31 03:20:13;;;;;;;5.85;3.78;;;16.30;99.90;;;;;;5207037;28;20037;-72
2023/07/31 03:22:44;;;;;;;4.45;3.72;;;16.20;99.90;;;;;;5188228;28;20033;-72
2023/07/31 03:25:15;;;;;;;4.43;4.03;;;16.20;99.90;;;;;;5187374;28;20456;-72
2023/07/31 03:27:46;;;;;;;4.22;3.88;;;16.30;99.90;;;;;;5187422;28;20476;-72
2023/07/31 03:30:17;;;;;;;4.10;3.70;;;16.50;99.90;;;;;;5186831;28;20080;-72
2023/07/31 03:32:48;;;;;;;4.53;3.85;;;16.40;99.90;;;;;;5187396;28;20065;-72
2023/07/31 03:35:18;;;;;;;4.57;3.10;;;16.30;99.90;;;;;;5185976;28;20033;-72
2023/07/31 03:37:49;;;;;;;3.55;3.17;;;16.40;99.90;;;;;;5187320;28;20034;-74
2023/07/31 03:40:20;;;;;;;3.50;3.20;;;16.50;99.90;;;;;;5187195;28;20038;-73
2023/07/31 03:42:51;;;;;;;4.40;3.00;;;16.50;99.90;;;;;;5189101;28;20057;-73
2023/07/31 03:45:22;;;;;;;5.57;3.30;;;16.50;99.90;;;;;;5207209;28;20033;-72
2023/07/31 03:47:54;;;;;;;3.95;3.60;;;16.40;99.90;;;;;;5206996;28;20022;-73
2023/07/31 03:50:25;;;;;;;4.15;2.90;;;16.50;99.90;;;;;;5206839;28;20075;-72
2023/07/31 03:52:56;;;;;;;3.65;3.35;;;16.60;99.90;;;;;;5206750;28;20435;-73
2023/07/31 03:55:27;;;;;;;5.45;3.75;;;16.60;99.90;;;;;;5206707;28;20113;-73
2023/07/31 03:57:57;;;;;;;4.60;4.20;;;16.70;99.90;;;;;;5207174;28;20025;-74
2023/07/31 04:00:28;;;;;;;3.78;3.42;;;16.60;99.90;;;;;;5207224;28;20035;-73
2023/07/31 04:02:59;;;;;;;4.57;3.58;;;16.70;99.90;;;;;;5207223;28;20033;-72
2023/07/31 04:05:32;;;;;;;4.13;3.80;;;16.60;99.90;;;;;;5206047;28;20029;-72
2023/07/31 04:08:02;;;;;;;5.10;3.78;;;16.70;99.90;;;;;;5206050;28;20057;-72
2023/07/31 04:10:33;;;;;;;5.25;3.78;;;16.70;99.90;;;;;;5207303;28;20424;-73
2023/07/31 04:13:04;;;;;;;6.82;3.78;;;16.70;99.90;;;;;;5206932;28;20018;-71
2023/07/31 04:15:35;;;;;;;5.07;4.13;;;16.70;99.90;;;;;;5206354;28;20488;-73
2023/07/31 04:18:06;;;;;;;4.63;4.22;;;17.00;99.90;;;;;;5206443;28;20071;-73
2023/07/31 04:20:37;;;;;;;4.88;4.15;;;17.10;99.90;;;;;;5204348;28;20021;-73
2023/07/31 04:23:08;;;;;;;5.45;4.82;;;17.00;99.90;;;;;;5205357;28;20030;-72
2023/07/31 04:25:39;;;;;;;5.97;5.38;;;17.20;99.90;;;;;;5205475;28;20041;-73
2023/07/31 04:28:09;;;;;;;5.72;5.22;;;17.50;99.90;;;;;;5205529;28;20072;-72
2023/07/31 04:30:40;;;;;;;5.63;5.13;;;17.70;99.90;;;;;;5205200;28;20069;-73
2023/07/31 04:33:11;;;;;;;5.82;5.32;;;17.50;99.90;;;;;;5205888;28;20517;-72
2023/07/31 04:35:48;;;;;;;5.78;5.28;;;17.60;99.90;;;;;;5206678;28;20694;-73
2023/07/31 04:38:19;;;;;;;6.63;4.85;;;17.90;99.90;;;;;;5206631;28;20017;-73
2023/07/31 04:40:50;;;;;;;7.32;4.28;;;18.10;99.90;;;;;;5206278;28;20124;-73
2023/07/31 04:43:21;;;;;;;4.80;4.30;;;18.30;99.90;;;;;;5205924;28;20549;-73
2023/07/31 04:45:53;;;;;;;4.20;3.75;;;18.30;99.90;;;;;;5206547;28;20473;-73
2023/07/31 04:48:24;;;;;;;4.47;4.07;;;18.10;99.90;;;;;;5206428;28;20031;-72
2023/07/31 04:50:55;;;;;;;4.40;3.67;;;18.10;99.90;;;;;;5206432;28;20029;-72
2023/07/31 04:53:26;;;;;;;4.05;3.67;;;18.20;99.90;;;;;;5205972;28;20040;-72
2023/07/31 04:55:57;;;;;;;3.75;3.45;;;18.30;99.90;;;;;;5205058;28;20033;-72
2023/07/31 04:58:28;;;;;;;4.38;3.97;;;18.40;99.90;;;;;;5206256;28;20484;-72
2023/07/31 05:00:59;;;;;;;6.00;3.90;;;18.60;99.90;;;;;;5206212;28;20112;-72
2023/07/31 05:03:29;;;;;;;4.72;3.90;;;18.60;99.90;;;;;;5206130;28;20430;-73
2023/07/31 05:06:00;;;;;;;4.30;3.90;;;18.90;99.90;;;;;;5206159;28;20108;-73
2023/07/31 05:08:31;;;;;;;6.07;4.25;;;19.10;99.90;;;;;;5206004;28;20025;-72
2023/07/31 05:11:03;;;;;;;4.45;3.90;;;19.20;99.90;;;;;;5205198;28;20026;-72
2023/07/31 05:13:33;;;;;;;4.18;3.75;;;19.40;99.90;;;;;;5205685;28;20061;-72
2023/07/31 05:16:04;;;;;;;4.22;3.85;;;19.60;99.90;;;;;;5204446;28;20749;-72
2023/07/31 05:18:35;;;;;;;3.97;3.67;;;19.90;99.90;;;;;;5204621;28;20389;-72
2023/07/31 05:21:07;;;;;;;4.85;4.45;;;20.00;99.90;;;;;;5204531;28;20421;-72
2023/07/31 05:23:37;;;;;;;5.28;4.53;;;20.00;99.90;;;;;;5710572;22;20709;-73
2023/07/31 05:26:11;;;;;;;6.72;4.70;;;20.40;99.90;;;;;;5183759;28;20050;-73
2023/07/31 05:28:42;;;;;;;4.97;4.47;;;20.60;99.90;;;;;;5184437;28;20132;-74
2023/07/31 05:31:13;;;;;;;6.28;5.18;;;21.00;99.90;;;;;;5185458;28;20477;-73
2023/07/31 05:33:44;;;;;;;5.78;4.90;;;21.30;99.90;;;;;;5185466;28;20108;-74
2023/07/31 05:36:15;;;;;;;5.95;4.60;;;21.60;99.90;;;;;;5185305;28;20040;-72
2023/07/31 05:38:46;;;;;;;5.30;4.30;;;21.90;99.90;;;;;;5185277;28;20072;-73
2023/07/31 05:41:18;;;;;;;6.78;4.20;;;22.00;99.90;;;;;;5185297;28;20030;-72
2023/07/31 05:43:49;;;;;;;4.93;4.35;;;22.40;99.90;;;;;;5185113;28;20033;-72
2023/07/31 05:46:19;;;;;;;4.90;4.45;;;22.80;99.90;;;;;;5185163;28;20029;-72
2023/07/31 05:48:50;;;;;;;5.10;4.65;;;22.80;99.90;;;;;;5185332;28;20029;-72
2023/07/31 05:51:21;;;;;;;6.30;4.90;;;22.70;99.90;;;;;;5181072;28;20033;-73
2023/07/31 05:53:52;;;;;;;7.60;6.88;;;22.70;99.90;;;;;;5167364;28;20030;-73
2023/07/31 05:56:23;;;;;;;8.45;7.75;;;22.70;99.90;;;;;;5169080;28;20023;-73
2023/07/31 05:58:54;;;;;;;7.78;7.18;;;22.90;99.90;;;;;;5168854;28;20045;-73
2023/07/31 06:01:25;;;;;;;7.45;6.80;;;23.00;99.90;;;;;;5168880;28;20042;-74
2023/07/31 06:03:55;;;;;;;8.00;6.90;;;23.10;99.90;;;;;;5168770;28;20026;-73
2023/07/31 06:06:26;;;;;;;7.85;7.05;;;23.00;99.90;;;;;;5168327;28;20038;-73
2023/07/31 06:08:57;;;;;;;7.45;6.90;;;23.00;99.90;;;;;;5170826;28;20018;-75
2023/07/31 06:11:28;;;;;;;7.57;6.38;;;23.00;99.90;;;;;;5187847;28;20032;-73
2023/07/31 06:13:59;;;;;;;8.82;5.57;;;22.90;99.90;;;;;;5187514;28;20026;-73
2023/07/31 06:16:30;;;;;;;5.88;5.25;;;23.00;99.90;;;;;;5187697;28;20481;-71
2023/07/31 06:19:01;;;;;;;5.55;4.85;;;23.00;99.90;;;;;;5187525;28;20018;-72
2023/07/31 06:21:32;;;;;;;6.88;4.88;;;23.10;99.90;;;;;;5187622;28;20396;-72
2023/07/31 06:24:03;;;;;;;4.90;4.50;;;23.10;99.90;;;;;;5180782;28;20055;-72
2023/07/31 06:26:34;;;;;;;6.07;4.60;;;23.20;99.90;;;;;;5168440;28;20041;-72
2023/07/31 06:29:05;;;;;;;6.53;5.10;;;23.30;99.90;;;;;;5168370;28;20093;-72
2023/07/31 06:31:35;;;;;;;6.38;5.72;;;23.50;99.90;;;;;;5168325;28;20050;-72
2023/07/31 06:34:06;;;;;;;6.47;5.95;;;23.90;99.90;;;;;;5168230;28;20038;-73
2023/07/31 06:36:37;;;;;;;6.60;5.63;;;23.80;99.90;;;;;;5167024;28;20036;-72
2023/07/31 06:39:08;;;;;;;4.63;4.22;;;23.90;99.90;;;;;;5168450;28;20506;-72
2023/07/31 06:41:39;;;;;;;4.50;3.00;;;24.10;99.90;;;;;;5168393;28;20070;-72
2023/07/31 06:44:11;;;;;;;6.43;3.55;;;24.30;99.90;;;;;;5168353;28;20069;-72
2023/07/31 06:46:42;;;;;;;7.75;4.50;;;24.50;99.90;;;;;;5167048;28;20497;-72
2023/07/31 06:49:15;;;;;;;5.40;4.93;;;24.60;99.90;;;;;;5167953;28;20042;-72
2023/07/31 06:51:45;;;;;;;4.88;4.50;;;25.00;99.90;;;;;;5168055;28;20045;-72
2023/07/31 06:54:16;;;;;;;5.82;4.72;;;25.10;99.90;;;;;;5178396;28;20088;-72
2023/07/31 06:56:47;;;;;;;6.88;6.38;;;24.90;99.90;;;;;;5188229;28;20382;-72
2023/07/31 06:59:18;;;;;;;6.60;5.90;;;24.80;99.90;;;;;;5188241;28;20454;-75
2023/07/31 07:01:49;;;;;;;5.88;5.28;;;25.00;99.90;;;;;;5187522;28;20037;-72
2023/07/31 07:04:20;;;;;;;5.80;5.28;;;25.10;99.90;;;;;;5185376;28;20084;-72
2023/07/31 07:06:50;;;;;;;4.50;4.10;;;25.30;99.90;;;;;;5185928;28;20041;-72
2023/07/31 07:09:21;;;;;;;4.60;4.13;;;25.00;99.90;;;;;;5186550;28;20029;-72
2023/07/31 07:11:52;;;;;;;4.68;4.28;;;25.00;99.90;;;;;;5186576;28;20052;-71
2023/07/31 07:14:23;;;;;;;6.88;4.25;;;25.00;99.90;;;;;;5186643;28;20094;-72
2023/07/31 07:16:54;;;;;;;5.00;4.60;;;25.10;99.90;;;;;;5186581;28;20022;-72
2023/07/31 07:19:25;;;;;;;4.82;4.43;;;25.00;99.90;;;;;;5186411;28;20048;-72
2023/07/31 07:21:56;;;;;;;6.78;5.32;;;25.60;99.90;;;;;;5187043;28;20366;-74
2023/07/31 07:24:26;;;;;;;5.95;5.53;;;25.70;99.90;;;;;;5187451;28;20041;-74
2023/07/31 07:26:57;;;;;;;5.50;5.10;;;25.80;99.90;;;;;;5172729;28;20037;-71
2023/07/31 07:29:28;;;;;;;5.30;4.80;;;25.90;99.90;;;;;;5167124;28;20433;-70
2023/07/31 07:31:59;;;;;;;6.05;5.55;;;26.00;99.90;;;;;;5167118;28;20351;-70
2023/07/31 07:34:30;;;;;;;5.93;5.32;;;26.20;99.90;;;;;;5167141;28;20069;-71
2023/07/31 07:37:01;;;;;;;6.88;6.28;;;26.50;99.90;;;;;;5167153;28;20030;-70
2023/07/31 07:39:32;;;;;;;7.20;6.55;;;26.30;99.90;;;;;;5167160;28;20027;-71
2023/07/31 07:42:03;;;;;;;7.70;7.20;;;26.20;99.90;;;;;;5166906;28;20042;-71
2023/07/31 07:44:34;;;;;;;8.77;8.27;;;26.30;99.90;;;;;;5166992;28;20049;-74
2023/07/31 07:47:07;;;;;;;7.07;6.68;;;26.40;99.90;;;;;;5167116;28;20019;-75
2023/07/31 07:49:38;;;;;;;6.57;6.15;;;26.40;99.90;;;;;;5166937;28;20077;-70
2023/07/31 07:52:09;;;;;;;5.00;4.60;;;26.60;99.90;;;;;;5167011;28;20568;-70
2023/07/31 07:54:40;;;;;;;5.57;4.28;;;26.60;99.90;;;;;;5165670;28;20158;-71
2023/07/31 07:57:11;;;;;;;5.28;4.88;;;26.60;99.90;;;;;;5167091;28;20030;-70
2023/07/31 07:59:42;;;;;;;4.78;4.38;;;26.60;99.90;;;;;;5165880;28;20358;-74
2023/07/31 08:02:13;;;;;;;4.07;3.78;;;26.60;99.90;;;;;;5164713;28;20042;-71
2023/07/31 08:04:44;;;;;;;4.07;3.63;;;26.60;99.90;;;;;;5172065;28;20022;-70
2023/07/31 08:07:15;;;;;;;3.90;3.65;;;26.50;99.90;;;;;;5185615;28;20029;-71
2023/07/31 08:09:45;;;;;;;5.53;4.63;;;26.70;99.90;;;;;;5185421;28;20121;-71
2023/07/31 08:12:16;;;;;;;6.65;4.65;;;26.70;99.90;;;;;;5185412;28;20512;-71
2023/07/31 08:14:47;;;;;;;5.68;5.22;;;26.90;99.90;;;;;;5185362;28;20049;-71
2023/07/31 08:17:18;;;;;;;6.95;6.25;;;26.90;99.90;;;;;;5171628;28;20053;-76
2023/07/31 08:19:49;;;;;;;7.60;6.95;;;26.90;99.90;;;;;;5180813;28;20076;-70
2023/07/31 08:22:20;;;;;;;7.60;7.10;;;27.00;99.90;;;;;;5186336;28;20076;-75
2023/07/31 08:24:50;;;;;;;8.07;7.47;;;27.00;99.90;;;;;;5186431;28;20046;-70
2023/07/31 08:27:21;;;;;;;8.75;8.05;;;27.00;99.90;;;;;;5186534;28;20025;-72
2023/07/31 08:29:53;;;;;;;8.63;7.65;;;27.00;99.90;;;;;;5185035;28;20022;-72
2023/07/31 08:32:24;;;;;;;7.40;6.80;;;27.20;99.90;;;;;;5186375;28;20025;-71
2023/07/31 08:34:54;;;;;;;7.50;6.22;;;27.30;99.90;;;;;;5186349;28;20026;-69
2023/07/31 08:37:25;;;;;;;5.53;5.22;;;27.30;99.90;;;;;;5186360;28;20110;-70
2023/07/31 08:39:56;;;;;;;6.78;6.28;;;27.40;99.90;;;;;;5186679;28;20030;-70
2023/07/31 08:42:27;;;;;;;5.80;4.70;;;27.30;99.90;;;;;;5166788;28;20046;-70
2023/07/31 08:44:59;;;;;;;8.00;5.25;;;27.20;99.90;;;;;;5165747;28;20026;-70
2023/07/31 08:47:31;;;;;;;6.20;5.18;;;27.70;99.90;;;;;;5165094;28;20033;-70
2023/07/31 08:50:02;;;;;;;5.22;4.78;;;27.90;99.90;;;;;;5165353;28;20044;-71
2023/07/31 08:52:33;;;;;;;5.15;4.75;;;27.70;99.90;;;;;;5164283;28;20019;-72
2023/07/31 08:55:05;;;;;;;5.38;4.88;;;27.80;99.90;;;;;;5164493;28;20553;-72
2023/07/31 08:57:38;;;;;;;5.00;4.53;;;28.00;99.90;;;;;;5166689;28;20026;-72
2023/07/31 09:00:10;;;;;;;7.38;3.13;;;28.00;99.90;;;;;;5164270;28;20462;-72
2023/07/31 09:02:51;;;;;;;4.80;4.10;;;28.00;99.90;;;;;;5170406;28;20030;-71
2023/07/31 09:05:23;;;;;;;3.53;3.22;;;28.00;99.90;;;;;;5184593;28;20031;-71
2023/07/31 09:07:56;;;;;;;4.28;3.80;;;28.00;99.90;;;;;;5185666;28;20033;-71
2023/07/31 09:10:27;;;;;;;5.43;3.70;;;28.20;99.90;;;;;;5185935;28;20025;-70
2023/07/31 09:12:59;;;;;;;5.53;3.40;;;28.00;99.90;;;;;;5185734;28;20026;-70
2023/07/31 09:15:29;;;;;;;4.15;3.33;;;28.20;99.90;;;;;;5185819;28;20062;-71
2023/07/31 09:18:02;;;;;;;4.07;3.78;;;28.10;99.90;;;;;;5185708;28;20438;-70
2023/07/31 09:20:33;;;;;;;3.97;3.25;;;28.20;99.90;;;;;;5184502;28;20113;-71
2023/07/31 09:23:12;;;;;;;3.78;3.10;;;28.30;99.90;;;;;;5163707;28;20561;-71
2023/07/31 09:25:44;;;;;;;3.17;2.83;;;28.50;99.90;;;;;;5165339;28;20018;-70
2023/07/31 09:28:16;;;;;;;3.67;3.38;;;28.10;99.90;;;;;;5164132;28;20044;-71
2023/07/31 09:30:51;;;;;;;3.55;3.25;;;28.20;99.90;;;;;;5165201;28;20029;-71
2023/07/31 09:33:22;;;;;;;5.03;3.30;;;28.30;99.90;;;;;;5165201;28;20030;-71
2023/07/31 09:35:53;;;;;;;3.80;3.60;;;28.20;99.90;;;;;;5165217;28;20386;-70
2023/07/31 09:38:24;;;;;;;5.28;4.22;;;27.90;99.90;;;;;;5165107;28;20463;-70
2023/07/31 09:40:58;;;;;;;4.13;3.80;;;28.20;99.90;;;;;;5164814;28;20508;-71
2023/07/31 09:43:29;;;;;;;3.65;3.35;;;28.20;99.90;;;;;;5164627;28;20034;-71
2023/07/31 09:46:00;;;;;;;7.43;4.18;;;28.00;99.90;;;;;;5164689;28;20553;-70
2023/07/31 09:48:32;;;;;;;4.63;3.88;;;28.00;99.90;;;;;;5163884;28;20085;-71
2023/07/31 09:51:05;;;;;;;4.95;3.38;;;28.30;99.90;;;;;;5163737;28;20105;-71
2023/07/31 09:53:35;;;;;;;5.43;3.33;;;28.60;99.90;;;;;;5688975;22;20042;-71
2023/07/31 09:56:06;;;;;;;5.88;3.70;;;28.50;99.90;;;;;;5204640;28;20664;-71
2023/07/31 09:58:38;;;;;;;6.85;3.80;;;28.50;99.90;;;;;;5204315;28;20465;-71
2023/07/31 10:01:09;;;;;;;5.88;3.78;;;28.70;99.90;;;;;;5204152;28;20033;-71
2023/07/31 10:03:40;;;;;;;5.55;3.40;;;28.90;99.90;;;;;;5203980;28;20037;-71
2023/07/31 10:06:13;;;;;;;3.60;3.30;;;28.60;99.90;;;;;;5204250;28;20487;-71
2023/07/31 10:08:48;;;;;;;5.50;3.70;;;28.30;99.90;;;;;;5205437;28;20025;-71
2023/07/31 10:11:20;;;;;;;5.22;4.47;;;28.40;99.90;;;;;;5205478;28;20029;-71
2023/07/31 10:13:52;;;;;;;4.85;4.43;;;28.30;99.90;;;;;;5204191;28;20064;-71
2023/07/31 10:16:23;;;;;;;5.80;4.75;;;28.40;99.90;;;;;;5205415;28;20041;-71
2023/07/31 10:18:54;;;;;;;4.68;4.28;;;28.20;99.90;;;;;;5205469;28;20025;-71
2023/07/31 10:21:26;;;;;;;5.28;4.00;;;28.60;99.90;;;;;;5205546;28;20396;-71
2023/07/31 10:23:57;;;;;;;4.25;3.83;;;29.00;99.90;;;;;;5205529;28;20433;-71
2023/07/31 10:26:29;;;;;;;3.97;3.67;;;28.80;99.90;;;;;;5205398;28;20037;-71
2023/07/31 10:29:01;;;;;;;4.35;2.80;;;28.50;99.90;;;;;;5205388;28;20025;-71
2023/07/31 10:31:33;;;;;;;4.07;2.88;;;28.50;99.90;;;;;;5205380;28;20024;-71
2023/07/31 10:34:05;;;;;;;3.97;2.92;;;28.40;99.90;;;;;;5203991;28;20026;-72
2023/07/31 10:36:36;;;;;;;4.53;3.00;;;28.60;99.90;;;;;;5205391;28;20425;-71
2023/07/31 10:39:36;;;;;;;3.42;3.13;;;28.30;99.90;;;;;;5205058;28;20075;-72
2023/07/31 10:42:13;;;;;;;6.13;3.30;;;28.60;99.90;;;;;;5208460;28;20401;-71
2023/07/31 10:44:46;;;;;;;5.28;3.63;;;28.70;99.90;;;;;;5207640;28;20442;-71
2023/07/31 10:47:17;;;;;;;4.18;3.15;;;28.50;99.90;;;;;;5207663;28;20627;-71
2023/07/31 10:49:49;;;;;;;3.85;3.45;;;28.20;99.90;;;;;;5207392;28;20033;-71
2023/07/31 10:52:26;;;;;;;3.38;2.67;;;28.80;99.90;;;;;;5207426;28;20022;-71
2023/07/31 10:55:22;;;;;;;4.47;2.97;;;28.80;99.90;;;;;;5207204;28;20077;-71
2023/07/31 10:57:55;;;;;;;4.30;3.50;;;28.40;99.90;;;;;;5206094;28;20516;-71
2023/07/31 11:00:29;;;;;;;3.58;3.25;;;28.60;99.90;;;;;;5208711;28;20173;-71
2023/07/31 11:03:06;;;;;;;3.75;2.60;;;28.60;99.90;;;;;;5208821;28;20385;-71
2023/07/31 11:05:59;;;;;;;3.15;2.35;;;28.80;99.90;;;;;;5208385;28;20014;-71
2023/07/31 11:08:35;;;;;;;4.88;2.10;;;29.10;99.90;;;;;;5207237;28;20504;-71
2023/07/31 11:11:17;;;;;;;4.38;2.33;;;29.10;99.90;;;;;;5208486;28;20021;-72
2023/07/31 11:13:52;;;;;;;3.75;2.53;;;29.10;99.90;;;;;;5208348;28;20034;-71
2023/07/31 11:16:24;;;;;;;4.97;2.55;;;28.80;99.90;;;;;;5208262;28;20021;-71
2023/07/31 11:18:55;;;;;;;2.75;1.95;;;28.70;99.90;;;;;;5208319;28;20083;-72
2023/07/31 11:21:26;;;;;;;5.70;2.08;;;29.00;99.90;;;;;;5208180;28;20029;-71
2023/07/31 11:23:58;;;;;;;2.50;2.30;;;28.80;99.90;;;;;;5207981;28;20036;-71
2023/07/31 11:26:30;;;;;;;4.63;2.20;;;29.10;99.90;;;;;;5208179;28;20525;-71
2023/07/31 11:29:01;;;;;;;5.03;2.90;;;29.20;99.90;;;;;;5208003;28;20029;-71
2023/07/31 11:31:39;;;;;;;4.18;2.75;;;29.40;99.90;;;;;;5208085;28;20021;-71
2023/07/31 11:34:09;;;;;;;4.57;2.88;;;29.60;99.90;;;;;;5208251;28;20033;-71
2023/07/31 11:36:40;;;;;;;3.05;2.85;;;29.20;99.90;;;;;;5207232;28;20033;-71
2023/07/31 11:39:11;;;;;;;4.55;3.22;;;29.10;99.90;;;;;;5207777;28;20102;-71
2023/07/31 11:41:42;;;;;;;4.53;2.88;;;28.50;99.90;;;;;;5206527;28;20520;-71
2023/07/31 11:44:13;;;;;;;3.92;2.80;;;28.70;99.90;;;;;;5206402;28;20029;-71
2023/07/31 11:46:44;;;;;;;4.93;3.40;;;29.10;99.90;;;;;;5205167;28;20025;-71
2023/07/31 11:49:15;;;;;;;3.58;3.28;;;29.20;99.90;;;;;;5206212;28;20026;-71
2023/07/31 11:51:46;;;;;;;4.90;3.60;;;28.80;99.90;;;;;;5205952;28;20141;-72
2023/07/31 11:54:18;;;;;;;5.70;3.15;;;29.10;99.90;;;;;;5204874;28;20042;-71
2023/07/31 11:56:50;;;;;;;4.38;3.63;;;29.20;99.90;;;;;;5206950;28;20457;-71
2023/07/31 11:59:21;;;;;;;3.22;2.95;;;28.80;99.90;;;;;;5207397;28;20433;-71
2023/07/31 12:01:53;;;;;;;3.83;2.70;;;28.70;99.90;;;;;;5207275;28;20060;-71
2023/07/31 12:04:25;;;;;;;4.18;3.40;;;28.80;99.90;;;;;;5207520;28;20414;-71
2023/07/31 12:06:56;;;;;;;3.83;3.08;;;28.90;99.90;;;;;;5207446;28;20025;-71
2023/07/31 12:09:27;;;;;;;6.68;2.75;;;29.00;99.90;;;;;;5207259;28;20029;-71
2023/07/31 12:11:59;;;;;;;4.40;2.80;;;29.30;99.90;;;;;;5207097;28;20353;-71
2023/07/31 12:14:30;;;;;;;4.15;2.75;;;29.40;99.90;;;;;;5207250;28;20033;-71
2023/07/31 12:17:04;;;;;;;6.47;2.85;;;29.40;99.90;;;;;;5207109;28;20159;-71
2023/07/31 12:19:37;;;;;;;3.75;2.53;;;29.10;99.90;;;;;;5207008;28;20037;-71
2023/07/31 12:22:16;;;;;;;3.22;2.60;;;29.20;99.90;;;;;;5206910;28;20064;-71
2023/07/31 12:24:47;;;;;;;3.57;3.27;;;29.50;99.90;;;;;;5206752;28;20025;-71
2023/07/31 12:27:18;;;;;;;2.80;2.50;;;29.40;99.90;;;;;;5206992;28;20037;-71
2023/07/31 12:29:49;;;;;;;5.00;2.83;;;29.40;99.90;;;;;;5206762;28;20029;-71
2023/07/31 12:32:25;;;;;;;4.65;3.20;;;29.30;99.90;;;;;;5206078;28;20037;-71
2023/07/31 12:35:01;;;;;;;3.78;3.03;;;29.60;99.90;;;;;;5206467;28;20112;-71
2023/07/31 12:37:33;;;;;;;3.17;2.88;;;29.30;99.90;;;;;;5205480;28;20112;-71
2023/07/31 12:40:04;;;;;;;4.00;3.17;;;29.60;99.90;;;;;;5205409;28;20048;-71
2023/07/31 12:42:35;;;;;;;3.40;3.20;;;29.20;99.90;;;;;;5205284;28;20366;-71
2023/07/31 12:45:06;;;;;;;3.00;2.78;;;29.10;99.90;;;;;;5205237;28;20083;-71
2023/07/31 12:47:37;;;;;;;9.05;3.20;;;29.30;99.90;;;;;;5205371;28;20029;-71
2023/07/31 12:50:08;;;;;;;4.43;3.15;;;29.20;99.90;;;;;;5205649;28;20029;-71
2023/07/31 12:52:39;;;;;;;3.65;3.00;;;29.20;99.90;;;;;;5206348;28;20029;-71
2023/07/31 12:55:10;;;;;;;4.07;3.67;;;29.40;99.90;;;;;;5206225;28;20136;-71
2023/07/31 12:57:44;;;;;;;4.68;3.35;;;29.20;99.90;;;;;;5206348;28;20028;-71
2023/07/31 13:00:15;;;;;;;3.53;3.22;;;29.00;99.90;;;;;;5206407;28;20033;-71
2023/07/31 13:02:46;;;;;;;3.28;2.97;;;29.10;99.90;;;;;;5205487;28;20033;-71
2023/07/31 13:05:17;;;;;;;3.38;2.88;;;29.10;99.90;;;;;;5206344;28;20427;-71
2023/07/31 13:07:48;;;;;;;3.35;3.10;;;29.40;99.90;;;;;;5206242;28;20025;-71
2023/07/31 13:10:19;;;;;;;3.45;2.97;;;29.20;99.90;;;;;;5206105;28;20025;-71
2023/07/31 13:12:50;;;;;;;2.92;2.72;;;29.40;99.90;;;;;;5206101;28;20091;-71